Alexandria, VA (22304)

2:32 AM EST on January 21, 2017 (GMT -0500)
West River | | Change Station

Elev 0 ft 38.85 °N, 76.54 °W | Updated 31 seconds ago

Overcast
Overcast
--
Feels Like --
N
-
Wind Variable Wind from North

Today
High -- | Low -- °F
--% Chance of Precip.
Yesterday
High -- | Low -- °F
Precip. -- in
Pressure 29.92 in
Visibility 3.0 miles
Clouds Overcast 500 ft
Dew Point Not available.
Humidity Not available.
Rainfall 0.00 in
Snow Depth Not available.
7:22 AM 5:17 PM
Last Quarter, 37% visible
SPECI KDCA 210701Z 21005KT 3SM -DZ BR OVC005 08/08 A2992 RMK AO2 P0000 T00830083 $
Pressure 29.92 in
Visibility 3.0 miles
Clouds Overcast 500 ft
Dew Point Not available.
Humidity Not available.
Rainfall 0.00 in
Snow Depth Not available.
7:22 AM 5:17 PM
Last Quarter, 37% visible
SPECI KDCA 210701Z 21005KT 3SM -DZ BR OVC005 08/08 A2992 RMK AO2 P0000 T00830083 $

Get Your Daily Forecast Email!

Thanks for signing up!

Be on the lookout for a verification email in your inbox.

You'll start receiving the daily forecast at 8 AM.

×

10-Day Weather Forecast

Almanac

Astronomy

Jan. 21, 2017 Rise Set
Actual Time
Civil Twilight
Nautical Twilight
Astronomical Twilight
Moon
Length of Visible Light
Length of Day
Tomorrow will be .
, % of the Moon is Illuminated

Today's Extremes

State Highs State Lows

Community

WunderPhotos

Upload Photos

1,962,540 photos uploaded!

WunderBlog® & News

Nearby

Air Quality

  Air Quality AQ Index Pollutant
Not available.

Snow Depth

Station Depth Elevation

Earthquake Activity

City Distance Mag. Time & Date
Minimum magnitude displayed is 2.5.

Coastal Water Temperatures

Place Temperature

Stations

Nearby Weather Stations

Station Location Temp. Windchill Dew Point Humidity Wind Precip. Elev Updated Type
                   

Watches & Warnings

There are currently no watches in effect.